sensor_id;sensor_type;location;lat;lon;timestamp;P1;durP1;ratioP1;P2;durP2;ratioP2
69152;SDS011;56261;51.580;4.578;2022-08-20T00:00:50;21.10;;;9.60;;
69152;SDS011;56261;51.580;4.578;2022-08-20T00:03:25;30.63;;;10.68;;
69152;SDS011;56261;51.580;4.578;2022-08-20T00:06:12;22.87;;;9.20;;
69152;SDS011;56261;51.580;4.578;2022-08-20T00:08:43;24.45;;;9.32;;
69152;SDS011;56261;51.580;4.578;2022-08-20T00:11:09;26.77;;;8.95;;
69152;SDS011;56261;51.580;4.578;2022-08-20T00:13:38;19.52;;;9.43;;
69152;SDS011;56261;51.580;4.578;2022-08-20T00:16:07;22.73;;;9.63;;
69152;SDS011;56261;51.580;4.578;2022-08-20T00:18:33;27.52;;;8.93;;
69152;SDS011;56261;51.580;4.578;2022-08-20T00:21:02;26.35;;;9.52;;
69152;SDS011;56261;51.580;4.578;2022-08-20T00:23:29;25.65;;;8.85;;
69152;SDS011;56261;51.580;4.578;2022-08-20T00:25:55;28.63;;;9.00;;
69152;SDS011;56261;51.580;4.578;2022-08-20T00:28:20;25.40;;;9.20;;
69152;SDS011;56261;51.580;4.578;2022-08-20T00:30:46;24.70;;;10.05;;
69152;SDS011;56261;51.580;4.578;2022-08-20T00:33:17;26.27;;;9.50;;
69152;SDS011;56261;51.580;4.578;2022-08-20T00:35:46;27.88;;;9.70;;
69152;SDS011;56261;51.580;4.578;2022-08-20T00:38:14;32.53;;;10.48;;
69152;SDS011;56261;51.580;4.578;2022-08-20T00:40:42;28.73;;;9.93;;
69152;SDS011;56261;51.580;4.578;2022-08-20T00:43:30;26.77;;;9.70;;
69152;SDS011;56261;51.580;4.578;2022-08-20T00:45:59;31.88;;;9.88;;
69152;SDS011;56261;51.580;4.578;2022-08-20T00:48:27;34.90;;;11.55;;
69152;SDS011;56261;51.580;4.578;2022-08-20T00:51:00;25.38;;;10.82;;
69152;SDS011;56261;51.580;4.578;2022-08-20T00:53:32;27.97;;;10.87;;
69152;SDS011;56261;51.580;4.578;2022-08-20T00:55:59;28.48;;;10.00;;
69152;SDS011;56261;51.580;4.578;2022-08-20T00:58:25;33.08;;;11.13;;
69152;SDS011;56261;51.580;4.578;2022-08-20T01:00:51;30.90;;;11.18;;
69152;SDS011;56261;51.580;4.578;2022-08-20T01:03:17;29.20;;;11.40;;
69152;SDS011;56261;51.580;4.578;2022-08-20T01:05:45;33.53;;;11.77;;
69152;SDS011;56261;51.580;4.578;2022-08-20T01:08:13;31.48;;;11.27;;
69152;SDS011;56261;51.580;4.578;2022-08-20T01:10:41;31.13;;;12.45;;
69152;SDS011;56261;51.580;4.578;2022-08-20T01:13:13;29.80;;;11.67;;
69152;SDS011;56261;51.580;4.578;2022-08-20T01:15:43;28.60;;;11.65;;
69152;SDS011;56261;51.580;4.578;2022-08-20T01:18:12;26.27;;;10.75;;
69152;SDS011;56261;51.580;4.578;2022-08-20T01:20:42;32.40;;;12.15;;
69152;SDS011;56261;51.580;4.578;2022-08-20T01:23:34;32.92;;;12.55;;
69152;SDS011;56261;51.580;4.578;2022-08-20T01:28:49;32.05;;;12.07;;
69152;SDS011;56261;51.580;4.578;2022-08-20T01:31:18;33.83;;;12.98;;
69152;SDS011;56261;51.580;4.578;2022-08-20T01:33:48;36.83;;;12.95;;
69152;SDS011;56261;51.580;4.578;2022-08-20T01:36:17;35.92;;;14.38;;
69152;SDS011;56261;51.580;4.578;2022-08-20T01:38:46;32.13;;;12.97;;
69152;SDS011;56261;51.580;4.578;2022-08-20T01:41:15;31.67;;;12.98;;
69152;SDS011;56261;51.580;4.578;2022-08-20T01:43:51;30.85;;;13.05;;
69152;SDS011;56261;51.580;4.578;2022-08-20T01:46:25;36.15;;;13.07;;
69152;SDS011;56261;51.580;4.578;2022-08-20T01:48:53;34.20;;;14.50;;
69152;SDS011;56261;51.580;4.578;2022-08-20T01:51:22;33.65;;;12.35;;
69152;SDS011;56261;51.580;4.578;2022-08-20T01:53:52;33.80;;;13.10;;
69152;SDS011;56261;51.580;4.578;2022-08-20T01:56:21;37.22;;;13.68;;
69152;SDS011;56261;51.580;4.578;2022-08-20T01:58:50;33.38;;;12.82;;
69152;SDS011;56261;51.580;4.578;2022-08-20T02:01:26;31.03;;;13.63;;
69152;SDS011;56261;51.580;4.578;2022-08-20T02:03:56;33.65;;;12.82;;
69152;SDS011;56261;51.580;4.578;2022-08-20T02:06:23;38.58;;;13.75;;
69152;SDS011;56261;51.580;4.578;2022-08-20T02:08:53;36.22;;;13.63;;
69152;SDS011;56261;51.580;4.578;2022-08-20T02:11:21;34.78;;;14.07;;
69152;SDS011;56261;51.580;4.578;2022-08-20T02:13:47;32.23;;;12.40;;
69152;SDS011;56261;51.580;4.578;2022-08-20T02:16:21;42.17;;;14.68;;
69152;SDS011;56261;51.580;4.578;2022-08-20T02:18:49;45.20;;;14.32;;
69152;SDS011;56261;51.580;4.578;2022-08-20T02:21:22;36.92;;;14.32;;
69152;SDS011;56261;51.580;4.578;2022-08-20T02:23:49;31.23;;;13.63;;
69152;SDS011;56261;51.580;4.578;2022-08-20T02:26:14;39.63;;;15.07;;
69152;SDS011;56261;51.580;4.578;2022-08-20T02:28:43;35.90;;;14.40;;
69152;SDS011;56261;51.580;4.578;2022-08-20T02:31:13;33.93;;;13.90;;
69152;SDS011;56261;51.580;4.578;2022-08-20T02:33:40;31.27;;;13.07;;
69152;SDS011;56261;51.580;4.578;2022-08-20T02:36:05;38.23;;;15.47;;
69152;SDS011;56261;51.580;4.578;2022-08-20T02:38:31;29.63;;;13.93;;
69152;SDS011;56261;51.580;4.578;2022-08-20T02:40:59;26.70;;;13.02;;
69152;SDS011;56261;51.580;4.578;2022-08-20T02:43:26;42.92;;;13.75;;
69152;SDS011;56261;51.580;4.578;2022-08-20T02:45:52;31.27;;;13.43;;
69152;SDS011;56261;51.580;4.578;2022-08-20T02:48:18;38.83;;;13.97;;
69152;SDS011;56261;51.580;4.578;2022-08-20T02:50:46;31.98;;;12.93;;
69152;SDS011;56261;51.580;4.578;2022-08-20T02:53:16;35.63;;;14.03;;
69152;SDS011;56261;51.580;4.578;2022-08-20T02:55:43;36.95;;;13.88;;
69152;SDS011;56261;51.580;4.578;2022-08-20T02:58:08;31.87;;;13.43;;
69152;SDS011;56261;51.580;4.578;2022-08-20T03:00:34;39.63;;;13.07;;
69152;SDS011;56261;51.580;4.578;2022-08-20T03:03:00;35.40;;;13.82;;
69152;SDS011;56261;51.580;4.578;2022-08-20T03:05:26;33.90;;;13.63;;
69152;SDS011;56261;51.580;4.578;2022-08-20T03:07:52;38.08;;;13.80;;
69152;SDS011;56261;51.580;4.578;2022-08-20T03:10:21;44.55;;;13.85;;
69152;SDS011;56261;51.580;4.578;2022-08-20T03:12:56;39.00;;;13.30;;
69152;SDS011;56261;51.580;4.578;2022-08-20T03:15:24;33.92;;;12.60;;
69152;SDS011;56261;51.580;4.578;2022-08-20T03:17:50;38.00;;;13.20;;
69152;SDS011;56261;51.580;4.578;2022-08-20T03:20:15;30.65;;;12.23;;
69152;SDS011;56261;51.580;4.578;2022-08-20T03:22:41;31.50;;;11.70;;
69152;SDS011;56261;51.580;4.578;2022-08-20T03:25:06;28.47;;;12.50;;
69152;SDS011;56261;51.580;4.578;2022-08-20T03:27:32;30.48;;;13.07;;
69152;SDS011;56261;51.580;4.578;2022-08-20T03:29:58;34.57;;;14.40;;
69152;SDS011;56261;51.580;4.578;2022-08-20T03:32:23;31.37;;;12.73;;
69152;SDS011;56261;51.580;4.578;2022-08-20T03:34:49;38.13;;;13.50;;
69152;SDS011;56261;51.580;4.578;2022-08-20T03:37:14;27.33;;;12.05;;
69152;SDS011;56261;51.580;4.578;2022-08-20T03:39:40;37.47;;;13.03;;
69152;SDS011;56261;51.580;4.578;2022-08-20T03:42:05;34.63;;;13.17;;
69152;SDS011;56261;51.580;4.578;2022-08-20T03:44:31;40.63;;;14.05;;
69152;SDS011;56261;51.580;4.578;2022-08-20T03:46:57;31.10;;;12.77;;
69152;SDS011;56261;51.580;4.578;2022-08-20T03:49:22;29.97;;;13.20;;
69152;SDS011;56261;51.580;4.578;2022-08-20T03:51:49;39.55;;;14.27;;
69152;SDS011;56261;51.580;4.578;2022-08-20T03:54:15;30.50;;;13.32;;
69152;SDS011;56261;51.580;4.578;2022-08-20T03:56:40;33.27;;;13.17;;
69152;SDS011;56261;51.580;4.578;2022-08-20T03:59:06;27.90;;;12.50;;
69152;SDS011;56261;51.580;4.578;2022-08-20T04:01:32;34.78;;;13.90;;
69152;SDS011;56261;51.580;4.578;2022-08-20T04:03:57;34.40;;;13.73;;
69152;SDS011;56261;51.580;4.578;2022-08-20T04:06:23;28.43;;;12.53;;
69152;SDS011;56261;51.580;4.578;2022-08-20T04:08:49;26.15;;;11.70;;
69152;SDS011;56261;51.580;4.578;2022-08-20T04:11:15;26.70;;;12.10;;
69152;SDS011;56261;51.580;4.578;2022-08-20T04:13:40;29.48;;;12.65;;
69152;SDS011;56261;51.580;4.578;2022-08-20T04:16:06;32.83;;;13.07;;
69152;SDS011;56261;51.580;4.578;2022-08-20T04:18:32;26.53;;;11.67;;
69152;SDS011;56261;51.580;4.578;2022-08-20T04:21:01;30.70;;;13.00;;
69152;SDS011;56261;51.580;4.578;2022-08-20T04:23:27;33.80;;;13.18;;
69152;SDS011;56261;51.580;4.578;2022-08-20T04:25:55;25.05;;;10.98;;
69152;SDS011;56261;51.580;4.578;2022-08-20T04:28:22;26.80;;;11.95;;
69152;SDS011;56261;51.580;4.578;2022-08-20T04:30:55;25.20;;;11.80;;
69152;SDS011;56261;51.580;4.578;2022-08-20T04:33:22;26.58;;;11.30;;
69152;SDS011;56261;51.580;4.578;2022-08-20T04:35:50;26.95;;;11.40;;
69152;SDS011;56261;51.580;4.578;2022-08-20T04:38:17;28.00;;;12.10;;
69152;SDS011;56261;51.580;4.578;2022-08-20T04:40:44;30.20;;;12.93;;
69152;SDS011;56261;51.580;4.578;2022-08-20T04:43:22;34.77;;;12.77;;
69152;SDS011;56261;51.580;4.578;2022-08-20T04:45:49;25.45;;;11.50;;
69152;SDS011;56261;51.580;4.578;2022-08-20T04:48:16;34.00;;;13.45;;
69152;SDS011;56261;51.580;4.578;2022-08-20T04:50:43;25.13;;;11.25;;
69152;SDS011;56261;51.580;4.578;2022-08-20T04:53:11;26.35;;;11.75;;
69152;SDS011;56261;51.580;4.578;2022-08-20T04:55:39;37.17;;;13.70;;
69152;SDS011;56261;51.580;4.578;2022-08-20T04:58:25;29.30;;;13.48;;
69152;SDS011;56261;51.580;4.578;2022-08-20T05:00:59;24.92;;;12.00;;
69152;SDS011;56261;51.580;4.578;2022-08-20T05:03:28;30.67;;;13.20;;
69152;SDS011;56261;51.580;4.578;2022-08-20T05:05:53;32.03;;;13.15;;
69152;SDS011;56261;51.580;4.578;2022-08-20T05:08:21;24.43;;;11.13;;
69152;SDS011;56261;51.580;4.578;2022-08-20T05:10:47;22.80;;;11.13;;
69152;SDS011;56261;51.580;4.578;2022-08-20T05:13:14;28.10;;;11.00;;
69152;SDS011;56261;51.580;4.578;2022-08-20T05:15:40;30.15;;;12.05;;
69152;SDS011;56261;51.580;4.578;2022-08-20T05:18:06;20.37;;;9.97;;
69152;SDS011;56261;51.580;4.578;2022-08-20T05:20:36;24.02;;;10.52;;
69152;SDS011;56261;51.580;4.578;2022-08-20T05:23:05;20.33;;;10.45;;
69152;SDS011;56261;51.580;4.578;2022-08-20T05:25:33;21.40;;;10.82;;
69152;SDS011;56261;51.580;4.578;2022-08-20T05:28:00;24.90;;;11.50;;
69152;SDS011;56261;51.580;4.578;2022-08-20T05:30:33;23.42;;;11.93;;
69152;SDS011;56261;51.580;4.578;2022-08-20T05:33:01;25.70;;;11.70;;
69152;SDS011;56261;51.580;4.578;2022-08-20T05:35:29;27.00;;;11.90;;
69152;SDS011;56261;51.580;4.578;2022-08-20T05:37:58;24.00;;;12.82;;
69152;SDS011;56261;51.580;4.578;2022-08-20T05:40:24;29.03;;;12.90;;
69152;SDS011;56261;51.580;4.578;2022-08-20T05:42:50;30.98;;;14.10;;
69152;SDS011;56261;51.580;4.578;2022-08-20T05:45:16;25.93;;;13.20;;
69152;SDS011;56261;51.580;4.578;2022-08-20T05:47:42;33.85;;;15.50;;
69152;SDS011;56261;51.580;4.578;2022-08-20T05:50:09;36.10;;;16.52;;
69152;SDS011;56261;51.580;4.578;2022-08-20T05:52:37;29.37;;;14.80;;
69152;SDS011;56261;51.580;4.578;2022-08-20T05:55:04;34.28;;;16.17;;
69152;SDS011;56261;51.580;4.578;2022-08-20T05:57:31;29.27;;;14.30;;
69152;SDS011;56261;51.580;4.578;2022-08-20T05:59:58;26.03;;;14.37;;
69152;SDS011;56261;51.580;4.578;2022-08-20T06:02:23;34.08;;;16.05;;
69152;SDS011;56261;51.580;4.578;2022-08-20T06:05:07;31.65;;;15.88;;
69152;SDS011;56261;51.580;4.578;2022-08-20T06:07:33;27.13;;;15.73;;
69152;SDS011;56261;51.580;4.578;2022-08-20T06:09:59;25.03;;;13.63;;
69152;SDS011;56261;51.580;4.578;2022-08-20T06:12:24;29.55;;;15.38;;
69152;SDS011;56261;51.580;4.578;2022-08-20T06:14:50;28.47;;;14.97;;
69152;SDS011;56261;51.580;4.578;2022-08-20T06:17:16;23.37;;;12.00;;
69152;SDS011;56261;51.580;4.578;2022-08-20T06:19:44;19.53;;;11.77;;
69152;SDS011;56261;51.580;4.578;2022-08-20T06:22:11;18.95;;;11.50;;
69152;SDS011;56261;51.580;4.578;2022-08-20T06:24:38;20.13;;;11.40;;
69152;SDS011;56261;51.580;4.578;2022-08-20T06:27:03;18.67;;;10.40;;
69152;SDS011;56261;51.580;4.578;2022-08-20T06:29:29;19.13;;;10.05;;
69152;SDS011;56261;51.580;4.578;2022-08-20T06:31:58;20.63;;;10.68;;
69152;SDS011;56261;51.580;4.578;2022-08-20T06:34:25;18.33;;;9.38;;
69152;SDS011;56261;51.580;4.578;2022-08-20T06:36:52;18.13;;;10.10;;
69152;SDS011;56261;51.580;4.578;2022-08-20T06:39:18;19.63;;;10.48;;
69152;SDS011;56261;51.580;4.578;2022-08-20T06:41:44;17.50;;;9.95;;
69152;SDS011;56261;51.580;4.578;2022-08-20T06:44:09;17.80;;;9.67;;
69152;SDS011;56261;51.580;4.578;2022-08-20T06:46:35;15.40;;;8.40;;
69152;SDS011;56261;51.580;4.578;2022-08-20T06:49:02;18.77;;;9.05;;
69152;SDS011;56261;51.580;4.578;2022-08-20T06:51:30;18.00;;;10.00;;
69152;SDS011;56261;51.580;4.578;2022-08-20T06:53:55;16.80;;;8.63;;
69152;SDS011;56261;51.580;4.578;2022-08-20T06:56:21;15.10;;;9.35;;
69152;SDS011;56261;51.580;4.578;2022-08-20T06:58:46;19.53;;;9.63;;
69152;SDS011;56261;51.580;4.578;2022-08-20T07:01:13;14.88;;;8.68;;
69152;SDS011;56261;51.580;4.578;2022-08-20T07:03:40;15.00;;;8.70;;
69152;SDS011;56261;51.580;4.578;2022-08-20T07:06:07;15.80;;;8.23;;
69152;SDS011;56261;51.580;4.578;2022-08-20T07:08:33;14.82;;;7.88;;
69152;SDS011;56261;51.580;4.578;2022-08-20T07:10:59;15.63;;;7.60;;
69152;SDS011;56261;51.580;4.578;2022-08-20T07:13:25;16.20;;;8.20;;
69152;SDS011;56261;51.580;4.578;2022-08-20T07:15:52;15.43;;;6.95;;
69152;SDS011;56261;51.580;4.578;2022-08-20T07:18:18;13.37;;;6.50;;
69152;SDS011;56261;51.580;4.578;2022-08-20T07:20:44;14.25;;;7.57;;
69152;SDS011;56261;51.580;4.578;2022-08-20T07:23:10;15.47;;;6.50;;
69152;SDS011;56261;51.580;4.578;2022-08-20T07:25:36;19.02;;;6.55;;
69152;SDS011;56261;51.580;4.578;2022-08-20T07:28:05;10.00;;;5.70;;
69152;SDS011;56261;51.580;4.578;2022-08-20T07:30:33;12.15;;;5.82;;
69152;SDS011;56261;51.580;4.578;2022-08-20T07:33:17;13.17;;;5.80;;
69152;SDS011;56261;51.580;4.578;2022-08-20T07:35:43;10.50;;;4.90;;
69152;SDS011;56261;51.580;4.578;2022-08-20T07:38:13;11.40;;;4.00;;
69152;SDS011;56261;51.580;4.578;2022-08-20T07:40:50;9.43;;;3.93;;
69152;SDS011;56261;51.580;4.578;2022-08-20T07:43:20;14.95;;;4.20;;
69152;SDS011;56261;51.580;4.578;2022-08-20T07:45:52;11.82;;;5.25;;
69152;SDS011;56261;51.580;4.578;2022-08-20T07:48:23;14.00;;;4.60;;
69152;SDS011;56261;51.580;4.578;2022-08-20T07:50:55;13.65;;;5.03;;
69152;SDS011;56261;51.580;4.578;2022-08-20T07:53:23;14.47;;;4.67;;
69152;SDS011;56261;51.580;4.578;2022-08-20T07:55:48;13.23;;;4.38;;
69152;SDS011;56261;51.580;4.578;2022-08-20T07:58:16;12.87;;;4.63;;
69152;SDS011;56261;51.580;4.578;2022-08-20T08:00:44;12.75;;;5.15;;
69152;SDS011;56261;51.580;4.578;2022-08-20T08:03:10;14.25;;;5.20;;
69152;SDS011;56261;51.580;4.578;2022-08-20T08:05:37;11.38;;;5.07;;
69152;SDS011;56261;51.580;4.578;2022-08-20T08:08:06;12.98;;;5.30;;
69152;SDS011;56261;51.580;4.578;2022-08-20T08:10:34;13.23;;;4.40;;
69152;SDS011;56261;51.580;4.578;2022-08-20T08:13:02;12.13;;;4.40;;
69152;SDS011;56261;51.580;4.578;2022-08-20T08:15:32;10.30;;;4.50;;
69152;SDS011;56261;51.580;4.578;2022-08-20T08:18:00;14.00;;;3.80;;
69152;SDS011;56261;51.580;4.578;2022-08-20T08:20:33;12.32;;;5.15;;
69152;SDS011;56261;51.580;4.578;2022-08-20T08:23:03;10.60;;;3.27;;
69152;SDS011;56261;51.580;4.578;2022-08-20T08:25:29;11.63;;;3.30;;
69152;SDS011;56261;51.580;4.578;2022-08-20T08:27:54;11.45;;;3.10;;
69152;SDS011;56261;51.580;4.578;2022-08-20T08:30:20;11.77;;;3.27;;
69152;SDS011;56261;51.580;4.578;2022-08-20T08:32:46;11.88;;;3.25;;
69152;SDS011;56261;51.580;4.578;2022-08-20T08:35:30;11.45;;;3.33;;
69152;SDS011;56261;51.580;4.578;2022-08-20T08:37:56;9.00;;;2.88;;
69152;SDS011;56261;51.580;4.578;2022-08-20T08:40:23;8.33;;;2.60;;
69152;SDS011;56261;51.580;4.578;2022-08-20T08:42:50;8.38;;;2.70;;
69152;SDS011;56261;51.580;4.578;2022-08-20T08:45:22;8.93;;;2.90;;
69152;SDS011;56261;51.580;4.578;2022-08-20T08:47:51;19.25;;;2.72;;
69152;SDS011;56261;51.580;4.578;2022-08-20T08:50:22;11.68;;;2.70;;
69152;SDS011;56261;51.580;4.578;2022-08-20T08:52:57;13.40;;;3.03;;
69152;SDS011;56261;51.580;4.578;2022-08-20T08:55:25;10.85;;;3.10;;
69152;SDS011;56261;51.580;4.578;2022-08-20T08:57:54;11.30;;;3.10;;
69152;SDS011;56261;51.580;4.578;2022-08-20T09:00:23;8.23;;;2.83;;
69152;SDS011;56261;51.580;4.578;2022-08-20T09:03:07;12.77;;;3.20;;
69152;SDS011;56261;51.580;4.578;2022-08-20T09:05:39;6.65;;;2.53;;
69152;SDS011;56261;51.580;4.578;2022-08-20T09:08:17;12.73;;;3.38;;
69152;SDS011;56261;51.580;4.578;2022-08-20T09:10:47;11.07;;;3.30;;
69152;SDS011;56261;51.580;4.578;2022-08-20T09:13:12;12.60;;;2.90;;
69152;SDS011;56261;51.580;4.578;2022-08-20T09:15:38;8.33;;;2.63;;
69152;SDS011;56261;51.580;4.578;2022-08-20T09:18:03;9.23;;;2.63;;
69152;SDS011;56261;51.580;4.578;2022-08-20T09:20:29;9.75;;;2.63;;
69152;SDS011;56261;51.580;4.578;2022-08-20T09:22:55;8.53;;;2.10;;
69152;SDS011;56261;51.580;4.578;2022-08-20T09:25:20;10.82;;;2.58;;
69152;SDS011;56261;51.580;4.578;2022-08-20T09:27:46;11.00;;;2.70;;
69152;SDS011;56261;51.580;4.578;2022-08-20T09:30:12;10.13;;;2.30;;
69152;SDS011;56261;51.580;4.578;2022-08-20T09:32:39;8.38;;;2.45;;
69152;SDS011;56261;51.580;4.578;2022-08-20T09:35:05;14.00;;;2.45;;
69152;SDS011;56261;51.580;4.578;2022-08-20T09:37:31;9.27;;;2.40;;
69152;SDS011;56261;51.580;4.578;2022-08-20T09:39:57;9.30;;;2.50;;
69152;SDS011;56261;51.580;4.578;2022-08-20T09:42:24;13.07;;;2.13;;
69152;SDS011;56261;51.580;4.578;2022-08-20T09:44:55;9.57;;;2.85;;
69152;SDS011;56261;51.580;4.578;2022-08-20T09:47:23;9.07;;;2.20;;
69152;SDS011;56261;51.580;4.578;2022-08-20T09:49:49;15.10;;;2.20;;
69152;SDS011;56261;51.580;4.578;2022-08-20T09:52:25;15.88;;;2.58;;
69152;SDS011;56261;51.580;4.578;2022-08-20T09:54:55;11.53;;;1.93;;
69152;SDS011;56261;51.580;4.578;2022-08-20T09:57:41;12.10;;;2.08;;
69152;SDS011;56261;51.580;4.578;2022-08-20T10:00:07;10.75;;;2.05;;
69152;SDS011;56261;51.580;4.578;2022-08-20T10:02:33;8.70;;;2.47;;
69152;SDS011;56261;51.580;4.578;2022-08-20T10:04:59;10.50;;;2.23;;
69152;SDS011;56261;51.580;4.578;2022-08-20T10:07:24;8.23;;;2.23;;
69152;SDS011;56261;51.580;4.578;2022-08-20T10:09:50;11.50;;;2.70;;
69152;SDS011;56261;51.580;4.578;2022-08-20T10:12:15;10.63;;;2.70;;
69152;SDS011;56261;51.580;4.578;2022-08-20T10:14:41;10.70;;;2.30;;
69152;SDS011;56261;51.580;4.578;2022-08-20T10:17:06;7.50;;;2.30;;
69152;SDS011;56261;51.580;4.578;2022-08-20T10:19:32;10.80;;;2.67;;
69152;SDS011;56261;51.580;4.578;2022-08-20T10:21:57;7.67;;;2.20;;
69152;SDS011;56261;51.580;4.578;2022-08-20T10:24:23;12.10;;;2.15;;
69152;SDS011;56261;51.580;4.578;2022-08-20T10:26:49;9.40;;;2.40;;
69152;SDS011;56261;51.580;4.578;2022-08-20T10:29:15;10.40;;;2.20;;
69152;SDS011;56261;51.580;4.578;2022-08-20T10:31:41;8.85;;;2.30;;
69152;SDS011;56261;51.580;4.578;2022-08-20T10:34:07;14.40;;;2.30;;
69152;SDS011;56261;51.580;4.578;2022-08-20T10:36:32;13.13;;;2.60;;
69152;SDS011;56261;51.580;4.578;2022-08-20T10:38:58;9.57;;;2.20;;
69152;SDS011;56261;51.580;4.578;2022-08-20T10:41:23;9.10;;;2.40;;
69152;SDS011;56261;51.580;4.578;2022-08-20T10:43:49;12.27;;;2.25;;
69152;SDS011;56261;51.580;4.578;2022-08-20T10:46:14;11.57;;;2.20;;
69152;SDS011;56261;51.580;4.578;2022-08-20T10:48:40;10.48;;;2.50;;
69152;SDS011;56261;51.580;4.578;2022-08-20T10:51:05;10.63;;;1.90;;
69152;SDS011;56261;51.580;4.578;2022-08-20T10:53:31;10.83;;;2.57;;
69152;SDS011;56261;51.580;4.578;2022-08-20T10:55:56;9.03;;;2.50;;
69152;SDS011;56261;51.580;4.578;2022-08-20T10:58:23;9.82;;;2.45;;
69152;SDS011;56261;51.580;4.578;2022-08-20T11:00:50;10.98;;;2.25;;
69152;SDS011;56261;51.580;4.578;2022-08-20T11:03:16;9.65;;;3.10;;
69152;SDS011;56261;51.580;4.578;2022-08-20T11:05:42;9.57;;;2.20;;
69152;SDS011;56261;51.580;4.578;2022-08-20T11:08:07;12.27;;;2.47;;
69152;SDS011;56261;51.580;4.578;2022-08-20T11:10:33;10.48;;;3.00;;
69152;SDS011;56261;51.580;4.578;2022-08-20T11:13:01;8.80;;;2.60;;
69152;SDS011;56261;51.580;4.578;2022-08-20T11:15:28;10.25;;;2.58;;
69152;SDS011;56261;51.580;4.578;2022-08-20T11:17:54;9.85;;;2.75;;
69152;SDS011;56261;51.580;4.578;2022-08-20T11:20:20;11.73;;;2.97;;
69152;SDS011;56261;51.580;4.578;2022-08-20T11:22:50;10.57;;;2.83;;
69152;SDS011;56261;51.580;4.578;2022-08-20T11:25:16;9.77;;;2.90;;
69152;SDS011;56261;51.580;4.578;2022-08-20T11:27:42;9.55;;;2.50;;
69152;SDS011;56261;51.580;4.578;2022-08-20T11:30:12;11.27;;;2.40;;
69152;SDS011;56261;51.580;4.578;2022-08-20T11:32:40;11.35;;;2.58;;
69152;SDS011;56261;51.580;4.578;2022-08-20T11:35:06;11.18;;;2.30;;
69152;SDS011;56261;51.580;4.578;2022-08-20T11:37:31;9.80;;;2.30;;
69152;SDS011;56261;51.580;4.578;2022-08-20T11:39:57;10.05;;;2.70;;
69152;SDS011;56261;51.580;4.578;2022-08-20T11:42:22;13.03;;;2.50;;
69152;SDS011;56261;51.580;4.578;2022-08-20T11:44:48;8.37;;;2.03;;
69152;SDS011;56261;51.580;4.578;2022-08-20T11:47:21;10.67;;;2.07;;
69152;SDS011;56261;51.580;4.578;2022-08-20T11:49:54;10.88;;;2.63;;
69152;SDS011;56261;51.580;4.578;2022-08-20T11:52:21;8.63;;;2.17;;
69152;SDS011;56261;51.580;4.578;2022-08-20T11:54:46;12.13;;;2.10;;
69152;SDS011;56261;51.580;4.578;2022-08-20T11:57:12;10.30;;;2.40;;
69152;SDS011;56261;51.580;4.578;2022-08-20T11:59:37;10.82;;;2.35;;
69152;SDS011;56261;51.580;4.578;2022-08-20T12:02:03;12.37;;;2.47;;
69152;SDS011;56261;51.580;4.578;2022-08-20T12:04:28;9.40;;;2.03;;
69152;SDS011;56261;51.580;4.578;2022-08-20T12:06:54;11.60;;;2.20;;
69152;SDS011;56261;51.580;4.578;2022-08-20T12:09:19;9.00;;;2.63;;
69152;SDS011;56261;51.580;4.578;2022-08-20T12:11:44;8.60;;;2.40;;
69152;SDS011;56261;51.580;4.578;2022-08-20T12:14:10;7.03;;;1.97;;
69152;SDS011;56261;51.580;4.578;2022-08-20T12:16:36;8.05;;;2.13;;
69152;SDS011;56261;51.580;4.578;2022-08-20T12:19:01;8.40;;;2.40;;
69152;SDS011;56261;51.580;4.578;2022-08-20T12:21:26;9.03;;;1.73;;
69152;SDS011;56261;51.580;4.578;2022-08-20T12:23:52;9.83;;;2.43;;
69152;SDS011;56261;51.580;4.578;2022-08-20T12:26:17;9.68;;;2.30;;
69152;SDS011;56261;51.580;4.578;2022-08-20T12:28:42;9.90;;;2.40;;
69152;SDS011;56261;51.580;4.578;2022-08-20T12:31:08;10.63;;;2.40;;
69152;SDS011;56261;51.580;4.578;2022-08-20T12:33:33;12.07;;;2.90;;
69152;SDS011;56261;51.580;4.578;2022-08-20T12:35:59;8.27;;;2.17;;
69152;SDS011;56261;51.580;4.578;2022-08-20T12:38:25;8.98;;;2.53;;
69152;SDS011;56261;51.580;4.578;2022-08-20T12:40:50;12.52;;;2.92;;
69152;SDS011;56261;51.580;4.578;2022-08-20T12:43:16;9.60;;;2.50;;
69152;SDS011;56261;51.580;4.578;2022-08-20T12:45:41;7.43;;;2.70;;
69152;SDS011;56261;51.580;4.578;2022-08-20T12:48:08;10.20;;;2.30;;
69152;SDS011;56261;51.580;4.578;2022-08-20T12:50:36;8.05;;;2.20;;
69152;SDS011;56261;51.580;4.578;2022-08-20T12:53:03;9.47;;;1.97;;
69152;SDS011;56261;51.580;4.578;2022-08-20T12:55:29;11.38;;;2.40;;
69152;SDS011;56261;51.580;4.578;2022-08-20T12:57:57;13.98;;;2.75;;
69152;SDS011;56261;51.580;4.578;2022-08-20T13:00:28;8.25;;;2.20;;
69152;SDS011;56261;51.580;4.578;2022-08-20T13:02:58;7.60;;;1.93;;
69152;SDS011;56261;51.580;4.578;2022-08-20T13:05:26;8.25;;;1.90;;
69152;SDS011;56261;51.580;4.578;2022-08-20T13:07:52;9.68;;;2.17;;
69152;SDS011;56261;51.580;4.578;2022-08-20T13:10:23;6.65;;;2.30;;
69152;SDS011;56261;51.580;4.578;2022-08-20T13:12:50;12.48;;;2.10;;
69152;SDS011;56261;51.580;4.578;2022-08-20T13:15:16;7.73;;;1.90;;
69152;SDS011;56261;51.580;4.578;2022-08-20T13:17:42;11.13;;;2.13;;
69152;SDS011;56261;51.580;4.578;2022-08-20T13:20:09;9.63;;;2.50;;
69152;SDS011;56261;51.580;4.578;2022-08-20T13:22:37;7.03;;;2.00;;
69152;SDS011;56261;51.580;4.578;2022-08-20T13:25:03;7.33;;;2.20;;
69152;SDS011;56261;51.580;4.578;2022-08-20T13:27:30;9.52;;;2.08;;
69152;SDS011;56261;51.580;4.578;2022-08-20T13:29:55;8.10;;;1.97;;
69152;SDS011;56261;51.580;4.578;2022-08-20T13:32:21;7.90;;;1.90;;
69152;SDS011;56261;51.580;4.578;2022-08-20T13:34:47;11.30;;;2.50;;
69152;SDS011;56261;51.580;4.578;2022-08-20T13:37:15;12.55;;;2.50;;
69152;SDS011;56261;51.580;4.578;2022-08-20T13:39:48;8.87;;;2.17;;
69152;SDS011;56261;51.580;4.578;2022-08-20T13:42:14;8.18;;;2.30;;
69152;SDS011;56261;51.580;4.578;2022-08-20T13:44:40;11.65;;;2.10;;
69152;SDS011;56261;51.580;4.578;2022-08-20T13:47:23;8.27;;;2.03;;
69152;SDS011;56261;51.580;4.578;2022-08-20T13:50:02;9.38;;;1.83;;
69152;SDS011;56261;51.580;4.578;2022-08-20T13:52:30;8.85;;;2.10;;
69152;SDS011;56261;51.580;4.578;2022-08-20T13:54:56;7.18;;;1.83;;
69152;SDS011;56261;51.580;4.578;2022-08-20T13:57:22;7.93;;;2.00;;
69152;SDS011;56261;51.580;4.578;2022-08-20T13:59:50;11.02;;;1.95;;
69152;SDS011;56261;51.580;4.578;2022-08-20T14:02:17;12.20;;;1.92;;
69152;SDS011;56261;51.580;4.578;2022-08-20T14:04:44;8.37;;;1.90;;
69152;SDS011;56261;51.580;4.578;2022-08-20T14:07:17;6.75;;;1.63;;
69152;SDS011;56261;51.580;4.578;2022-08-20T14:09:47;8.23;;;2.00;;
69152;SDS011;56261;51.580;4.578;2022-08-20T14:12:18;10.50;;;1.88;;
69152;SDS011;56261;51.580;4.578;2022-08-20T14:14:44;6.80;;;1.60;;
69152;SDS011;56261;51.580;4.578;2022-08-20T14:19:47;9.32;;;2.10;;
69152;SDS011;56261;51.580;4.578;2022-08-20T14:22:13;6.30;;;1.90;;
69152;SDS011;56261;51.580;4.578;2022-08-20T14:24:41;6.03;;;1.65;;
69152;SDS011;56261;51.580;4.578;2022-08-20T14:27:08;9.75;;;1.80;;
69152;SDS011;56261;51.580;4.578;2022-08-20T14:29:34;9.80;;;3.93;;
69152;SDS011;56261;51.580;4.578;2022-08-20T14:32:02;10.82;;;2.10;;
69152;SDS011;56261;51.580;4.578;2022-08-20T14:34:28;7.43;;;1.83;;
69152;SDS011;56261;51.580;4.578;2022-08-20T14:36:53;6.93;;;1.90;;
69152;SDS011;56261;51.580;4.578;2022-08-20T14:39:19;8.55;;;1.73;;
69152;SDS011;56261;51.580;4.578;2022-08-20T14:41:48;8.90;;;1.75;;